PWSweather.com
Personal Weather Stations
Station Observations
KCOBLACK1
Chalet Park, Black Hawk, CO 80422

Chalet ParkBlack Hawk, CO 80422

Lat: 39.8294, Lon: -105.48

Elevation: 9370

Station Type: Vantage Pro2

http://www.oscaranddeb.com/weather

Latest ConditionsUpdated 9:40:00 PM MDT Friday, Jul 20, 2018
Currently Today's Max Today's Min Today's Average
Temperature 63.2°F17.3°C 80.1°F26.7°C 58.9°F14.9°C 68.3°F20.2°C
Dew Point 39.1°F3.9°C 42.9°F6.1°C 25.7°F-3.5°C 33.3°F0.7°C
Winds 4.5 mph WSW7.2 kmh WSW 10.5 mph -16.9 kmh - - 4.6 mph 7.4 kmh
Wind Gusts 12.0 mph19.3 kmh 19.0 mph30.6 kmh - -
Humidity 41% 55% 15% 29%
Pressure 29.72 in1006.4 mb 29.72 in1006.4 mb 29.61 in1002.7 mb -
Hour Temp Dew Point Humidity Winds Wind Gusts Pressure Precip Precip Rate Daily Precip Total
09:40 PM 63.2°F17.3°C 39.1°F3.9°C 41% 4.5 mph WSW7.2 kmh WSW 12.0 mph19.3 kmh 29.72 in1006.4 mb 0.00 in0.0 mm 0.00 in0.0 mm 0.00 in0.0 mm
09:35 PM 63.3°F17.4°C 39.2°F4.0°C 41% 5.8 mph WSW9.3 kmh WSW 12.0 mph19.3 kmh 29.72 in1006.4 mb 0.00 in0.0 mm 0.00 in0.0 mm 0.00 in0.0 mm
09:30 PM 63.4°F17.4°C 39.3°F4.1°C 41% 5.6 mph WSW9.0 kmh WSW 12.0 mph19.3 kmh 29.72 in1006.4 mb 0.00 in0.0 mm 0.00 in0.0 mm 0.00 in0.0 mm
09:25 PM 63.5°F17.5°C 39.4°F4.1°C 41% 6.3 mph WSW10.1 kmh WSW 12.0 mph19.3 kmh 29.71 in1006.1 mb 0.00 in0.0 mm 0.00 in0.0 mm 0.00 in0.0 mm
09:20 PM 63.6°F17.6°C 39.5°F4.2°C 41% 6.2 mph WSW10.0 kmh WSW 11.0 mph17.7 kmh 29.71 in1006.1 mb 0.00 in0.0 mm 0.00 in0.0 mm 0.00 in0.0 mm
09:15 PM 63.6°F17.6°C 39.5°F4.2°C 41% 6.6 mph WSW10.6 kmh WSW 11.0 mph17.7 kmh 29.72 in1006.4 mb 0.00 in0.0 mm 0.00 in0.0 mm 0.00 in0.0 mm
09:10 PM 63.6°F17.6°C 39.5°F4.2°C 41% 5.9 mph WSW9.5 kmh WSW 11.0 mph17.7 kmh 29.71 in1006.1 mb 0.00 in0.0 mm 0.00 in0.0 mm 0.00 in0.0 mm
09:05 PM 63.6°F17.6°C 39.5°F4.2°C 41% 5.9 mph WSW9.5 kmh WSW 10.0 mph16.1 kmh 29.71 in1006.1 mb 0.00 in0.0 mm 0.00 in0.0 mm 0.00 in0.0 mm
09:00 PM 63.8°F17.7°C 39.6°F4.2°C 41% 5.4 mph WSW8.7 kmh WSW 11.0 mph17.7 kmh 29.71 in1006.1 mb 0.00 in0.0 mm 0.00 in0.0 mm 0.00 in0.0 mm
08:55 PM 63.9°F17.7°C 39.7°F4.3°C 41% 7.0 mph WSW11.3 kmh WSW 16.0 mph25.7 kmh 29.71 in1006.1 mb 0.00 in0.0 mm 0.00 in0.0 mm 0.00 in0.0 mm
08:50 PM 64.1°F17.8°C 39.3°F4.1°C 40% 7.5 mph WSW12.1 kmh WSW 16.0 mph25.7 kmh 29.71 in1006.1 mb 0.00 in0.0 mm 0.00 in0.0 mm 0.00 in0.0 mm
08:45 PM 64.3°F17.9°C 38.8°F3.8°C 39% 8.0 mph SW12.9 kmh SW 15.0 mph24.1 kmh 29.71 in1006.1 mb 0.00 in0.0 mm 0.00 in0.0 mm 0.00 in0.0 mm
08:40 PM 64.5°F18.1°C 39.0°F3.9°C 39% 9.0 mph SW14.5 kmh SW 17.0 mph27.4 kmh 29.71 in1006.1 mb 0.00 in0.0 mm 0.00 in0.0 mm 0.00 in0.0 mm
08:35 PM 64.7°F18.2°C 38.5°F3.6°C 38% 9.7 mph SW15.6 kmh SW 17.0 mph27.4 kmh 29.71 in1006.1 mb 0.00 in0.0 mm 0.00 in0.0 mm 0.00 in0.0 mm
08:30 PM 64.8°F18.2°C 38.6°F3.7°C 38% 8.5 mph SW13.7 kmh SW 16.0 mph25.7 kmh 29.71 in1006.1 mb 0.00 in0.0 mm 0.00 in0.0 mm 0.00 in0.0 mm
08:25 PM 64.9°F18.3°C 38.7°F3.7°C 38% 6.5 mph WSW10.5 kmh WSW 12.0 mph19.3 kmh 29.71 in1006.1 mb 0.00 in0.0 mm 0.00 in0.0 mm 0.00 in0.0 mm
08:20 PM 65.1°F18.4°C 38.9°F3.8°C 38% 7.4 mph SW11.9 kmh SW 12.0 mph19.3 kmh 29.71 in1006.1 mb 0.00 in0.0 mm 0.00 in0.0 mm 0.00 in0.0 mm
08:15 PM 65.3°F18.5°C 38.4°F3.6°C 37% 7.9 mph SW12.7 kmh SW 14.0 mph22.5 kmh 29.71 in1006.1 mb 0.00 in0.0 mm 0.00 in0.0 mm 0.00 in0.0 mm
08:10 PM 65.6°F18.7°C 38.6°F3.7°C 37% 7.0 mph SW11.3 kmh SW 14.0 mph22.5 kmh 29.71 in1006.1 mb 0.00 in0.0 mm 0.00 in0.0 mm 0.00 in0.0 mm
08:05 PM 65.8°F18.8°C 38.8°F3.8°C 37% 5.9 mph SW9.5 kmh SW 11.0 mph17.7 kmh 29.71 in1006.1 mb 0.00 in0.0 mm 0.00 in0.0 mm 0.00 in0.0 mm
08:00 PM 66.1°F18.9°C 39.1°F3.9°C 37% 6.4 mph SW10.3 kmh SW 11.0 mph17.7 kmh 29.71 in1006.1 mb 0.00 in0.0 mm 0.00 in0.0 mm 0.00 in0.0 mm
07:55 PM 66.4°F19.1°C 38.6°F3.7°C 36% 6.5 mph SW10.5 kmh SW 12.0 mph19.3 kmh 29.70 in1005.8 mb 0.00 in0.0 mm 0.00 in0.0 mm 0.00 in0.0 mm
07:50 PM 66.8°F19.3°C 38.3°F3.5°C 35% 6.7 mph WSW10.8 kmh WSW 13.0 mph20.9 kmh 29.70 in1005.8 mb 0.00 in0.0 mm 0.00 in0.0 mm 0.00 in0.0 mm
07:45 PM 67.2°F19.6°C 38.6°F3.7°C 35% 7.5 mph SW12.1 kmh SW 15.0 mph24.1 kmh 29.70 in1005.8 mb 0.00 in0.0 mm 0.00 in0.0 mm 0.00 in0.0 mm
07:40 PM 67.8°F19.9°C 38.4°F3.6°C 34% 7.1 mph SW11.4 kmh SW 15.0 mph24.1 kmh 29.70 in1005.8 mb 0.00 in0.0 mm 0.00 in0.0 mm 0.00 in0.0 mm
07:35 PM 68.2°F20.1°C 38.8°F3.8°C 34% 7.5 mph SW12.1 kmh SW 13.0 mph20.9 kmh 29.70 in1005.8 mb 0.00 in0.0 mm 0.00 in0.0 mm 0.00 in0.0 mm
07:30 PM 68.9°F20.5°C 38.6°F3.7°C 33% 7.5 mph SW12.1 kmh SW 14.0 mph22.5 kmh 29.70 in1005.8 mb 0.00 in0.0 mm 0.00 in0.0 mm 0.00 in0.0 mm
07:25 PM 69.4°F20.8°C 38.3°F3.5°C 32% 9.2 mph SW14.8 kmh SW 16.0 mph25.7 kmh 29.69 in1005.4 mb 0.00 in0.0 mm 0.00 in0.0 mm 0.00 in0.0 mm
07:20 PM 69.5°F20.8°C 38.3°F3.5°C 32% 8.9 mph SW14.3 kmh SW 16.0 mph25.7 kmh 29.69 in1005.4 mb 0.00 in0.0 mm 0.00 in0.0 mm 0.00 in0.0 mm
07:15 PM 69.0°F20.6°C 37.9°F3.3°C 32% 8.0 mph SSW12.9 kmh SSW 15.0 mph24.1 kmh 29.69 in1005.4 mb 0.00 in0.0 mm 0.00 in0.0 mm 0.00 in0.0 mm
07:10 PM 68.6°F20.3°C 37.6°F3.1°C 32% 9.5 mph SSW15.3 kmh SSW 18.0 mph29.0 kmh 29.69 in1005.4 mb 0.00 in0.0 mm 0.00 in0.0 mm 0.00 in0.0 mm
07:05 PM 68.6°F20.3°C 37.6°F3.1°C 32% 9.7 mph SSW15.6 kmh SSW 18.0 mph29.0 kmh 29.69 in1005.4 mb 0.00 in0.0 mm 0.00 in0.0 mm 0.00 in0.0 mm
07:00 PM 68.8°F20.4°C 37.7°F3.2°C 32% 9.6 mph SSW15.4 kmh SSW 15.0 mph24.1 kmh 29.69 in1005.4 mb 0.00 in0.0 mm 0.00 in0.0 mm 0.00 in0.0 mm
06:55 PM 69.3°F20.7°C 37.4°F3.0°C 31% 8.4 mph SSW13.5 kmh SSW 15.0 mph24.1 kmh 29.69 in1005.4 mb 0.00 in0.0 mm 0.00 in0.0 mm 0.00 in0.0 mm
06:50 PM 69.8°F21.0°C 37.0°F2.8°C 30% 6.8 mph SSW10.9 kmh SSW 15.0 mph24.1 kmh 29.69 in1005.4 mb 0.00 in0.0 mm 0.00 in0.0 mm 0.00 in0.0 mm
06:45 PM 70.0°F21.1°C 37.1°F2.8°C 30% 7.2 mph SW11.6 kmh SW 16.0 mph25.7 kmh 29.69 in1005.4 mb 0.00 in0.0 mm 0.00 in0.0 mm 0.00 in0.0 mm
06:40 PM 69.8°F21.0°C 37.0°F2.8°C 30% 8.7 mph SSW14.0 kmh SSW 19.0 mph30.6 kmh 29.69 in1005.4 mb 0.00 in0.0 mm 0.00 in0.0 mm 0.00 in0.0 mm
06:35 PM 69.8°F21.0°C 37.0°F2.8°C 30% 10.5 mph SSW16.9 kmh SSW 19.0 mph30.6 kmh 29.69 in1005.4 mb 0.00 in0.0 mm 0.00 in0.0 mm 0.00 in0.0 mm
06:30 PM 70.3°F21.3°C 37.4°F3.0°C 30% 9.4 mph SSW15.1 kmh SSW 17.0 mph27.4 kmh 29.69 in1005.4 mb 0.00 in0.0 mm 0.00 in0.0 mm 0.00 in0.0 mm
06:25 PM 71.0°F21.7°C 37.1°F2.8°C 29% 9.4 mph SSW15.1 kmh SSW 15.0 mph24.1 kmh 29.69 in1005.4 mb 0.00 in0.0 mm 0.00 in0.0 mm 0.00 in0.0 mm
06:20 PM 71.5°F21.9°C 36.7°F2.6°C 28% 8.6 mph SSW13.8 kmh SSW 14.0 mph22.5 kmh 29.69 in1005.4 mb 0.00 in0.0 mm 0.00 in0.0 mm 0.00 in0.0 mm
06:15 PM 71.7°F22.1°C 36.8°F2.7°C 28% 6.2 mph SSW10.0 kmh SSW 12.0 mph19.3 kmh 29.69 in1005.4 mb 0.00 in0.0 mm 0.00 in0.0 mm 0.00 in0.0 mm
06:10 PM 71.5°F21.9°C 36.7°F2.6°C 28% 6.4 mph S10.3 kmh S 14.0 mph22.5 kmh 29.69 in1005.4 mb 0.00 in0.0 mm 0.00 in0.0 mm 0.00 in0.0 mm
06:05 PM 71.5°F21.9°C 35.8°F2.1°C 27% 7.0 mph SSW11.3 kmh SSW 15.0 mph24.1 kmh 29.69 in1005.4 mb 0.00 in0.0 mm 0.00 in0.0 mm 0.00 in0.0 mm
06:00 PM 72.2°F22.3°C 35.4°F1.9°C 26% 7.5 mph S12.1 kmh S 15.0 mph24.1 kmh 29.69 in1005.4 mb 0.00 in0.0 mm 0.00 in0.0 mm 0.00 in0.0 mm
05:55 PM 73.0°F22.8°C 35.1°F1.7°C 25% 2.6 mph SE4.2 kmh SE 11.0 mph17.7 kmh 29.68 in1005.1 mb 0.00 in0.0 mm 0.00 in0.0 mm 0.00 in0.0 mm
05:50 PM 73.5°F23.1°C 33.4°F0.8°C 23% 3.2 mph SSE5.1 kmh SSE 11.0 mph17.7 kmh 29.69 in1005.4 mb 0.00 in0.0 mm 0.00 in0.0 mm 0.00 in0.0 mm
05:45 PM 73.3°F22.9°C 34.3°F1.3°C 24% 2.3 mph SE3.7 kmh SE 9.0 mph14.5 kmh 29.69 in1005.4 mb 0.00 in0.0 mm 0.00 in0.0 mm 0.00 in0.0 mm
05:40 PM 72.9°F22.7°C 34.0°F1.1°C 24% 2.9 mph S4.7 kmh S 10.0 mph16.1 kmh 29.69 in1005.4 mb 0.00 in0.0 mm 0.00 in0.0 mm 0.00 in0.0 mm
05:35 PM 72.9°F22.7°C 34.0°F1.1°C 24% 3.0 mph SE4.8 kmh SE 10.0 mph16.1 kmh 29.69 in1005.4 mb 0.00 in0.0 mm 0.00 in0.0 mm 0.00 in0.0 mm
05:30 PM 73.0°F22.8°C 33.0°F0.6°C 23% 3.8 mph S6.1 kmh S 11.0 mph17.7 kmh 29.68 in1005.1 mb 0.00 in0.0 mm 0.00 in0.0 mm 0.00 in0.0 mm
05:25 PM 73.3°F22.9°C 33.3°F0.7°C 23% 4.8 mph S7.7 kmh S 11.0 mph17.7 kmh 29.68 in1005.1 mb 0.00 in0.0 mm 0.00 in0.0 mm 0.00 in0.0 mm
05:20 PM 73.7°F23.2°C 33.6°F0.9°C 23% 4.8 mph S7.7 kmh S 10.0 mph16.1 kmh 29.68 in1005.1 mb 0.00 in0.0 mm 0.00 in0.0 mm 0.00 in0.0 mm
05:15 PM 73.9°F23.3°C 33.8°F1.0°C 23% 3.3 mph SE5.3 kmh SE 8.0 mph12.9 kmh 29.68 in1005.1 mb 0.00 in0.0 mm 0.00 in0.0 mm 0.00 in0.0 mm
05:10 PM 73.9°F23.3°C 33.8°F1.0°C 23% 3.0 mph SE4.8 kmh SE 7.0 mph11.3 kmh 29.68 in1005.1 mb 0.00 in0.0 mm 0.00 in0.0 mm 0.00 in0.0 mm
05:05 PM 73.9°F23.3°C 33.8°F1.0°C 23% 1.9 mph SE3.1 kmh SE 9.0 mph14.5 kmh 29.68 in1005.1 mb 0.00 in0.0 mm 0.00 in0.0 mm 0.00 in0.0 mm
05:00 PM 73.7°F23.2°C 32.5°F0.3°C 22% 4.3 mph S6.9 kmh S 10.0 mph16.1 kmh 29.68 in1005.1 mb 0.00 in0.0 mm 0.00 in0.0 mm 0.00 in0.0 mm
04:55 PM 73.5°F23.1°C 33.4°F0.8°C 23% 4.1 mph SE6.6 kmh SE 13.0 mph20.9 kmh 29.68 in1005.1 mb 0.00 in0.0 mm 0.00 in0.0 mm 0.00 in0.0 mm
04:50 PM 73.9°F23.3°C 31.5°F-0.3°C 21% 7.5 mph S12.1 kmh S 19.0 mph30.6 kmh 29.68 in1005.1 mb 0.00 in0.0 mm 0.00 in0.0 mm 0.00 in0.0 mm
04:45 PM 75.3°F24.1°C 31.4°F-0.3°C 20% 9.0 mph SSW14.5 kmh SSW 19.0 mph30.6 kmh 29.68 in1005.1 mb 0.00 in0.0 mm 0.00 in0.0 mm 0.00 in0.0 mm
04:40 PM 76.7°F24.8°C 31.3°F-0.4°C 19% 5.8 mph S9.3 kmh S 17.0 mph27.4 kmh 29.68 in1005.1 mb 0.00 in0.0 mm 0.00 in0.0 mm 0.00 in0.0 mm
04:35 PM 76.1°F24.5°C 32.1°F0.1°C 20% 5.0 mph S8.0 kmh S 12.0 mph19.3 kmh 29.68 in1005.1 mb 0.00 in0.0 mm 0.00 in0.0 mm 0.00 in0.0 mm
04:30 PM 75.7°F24.3°C 33.0°F0.6°C 21% 4.4 mph SSE7.1 kmh SSE 11.0 mph17.7 kmh 29.68 in1005.1 mb 0.00 in0.0 mm 0.00 in0.0 mm 0.00 in0.0 mm
04:25 PM 75.3°F24.1°C 30.2°F-1.0°C 19% 4.5 mph SSE7.2 kmh SSE 12.0 mph19.3 kmh 29.68 in1005.1 mb 0.00 in0.0 mm 0.00 in0.0 mm 0.00 in0.0 mm
04:20 PM 75.1°F23.9°C 31.3°F-0.4°C 20% 5.1 mph SSE8.2 kmh SSE 12.0 mph19.3 kmh 29.68 in1005.1 mb 0.00 in0.0 mm 0.00 in0.0 mm 0.00 in0.0 mm
04:15 PM 75.6°F24.2°C 29.1°F-1.6°C 18% 2.6 mph SSW4.2 kmh SSW 11.0 mph17.7 kmh 29.68 in1005.1 mb 0.00 in0.0 mm 0.00 in0.0 mm 0.00 in0.0 mm
04:10 PM 76.0°F24.4°C 32.0°F0.0°C 20% 5.3 mph SSE8.5 kmh SSE 11.0 mph17.7 kmh 29.68 in1005.1 mb 0.00 in0.0 mm 0.00 in0.0 mm 0.00 in0.0 mm
04:05 PM 76.4°F24.7°C 32.4°F0.2°C 20% 2.5 mph SSE4.0 kmh SSE 8.0 mph12.9 kmh 29.68 in1005.1 mb 0.00 in0.0 mm 0.00 in0.0 mm 0.00 in0.0 mm
04:00 PM 76.7°F24.8°C 32.6°F0.3°C 20% 1.9 mph SE3.1 kmh SE 7.0 mph11.3 kmh 29.68 in1005.1 mb 0.00 in0.0 mm 0.00 in0.0 mm 0.00 in0.0 mm
03:55 PM 77.0°F25.0°C 28.8°F-1.8°C 17% 2.5 mph SE4.0 kmh SE 8.0 mph12.9 kmh 29.67 in1004.7 mb 0.00 in0.0 mm 0.00 in0.0 mm 0.00 in0.0 mm
03:50 PM 76.7°F24.8°C 31.3°F-0.4°C 19% 2.9 mph ESE4.7 kmh ESE 9.0 mph14.5 kmh 29.67 in1004.7 mb 0.00 in0.0 mm 0.00 in0.0 mm 0.00 in0.0 mm
03:45 PM 76.1°F24.5°C 32.1°F0.1°C 20% 3.6 mph ESE5.8 kmh ESE 11.0 mph17.7 kmh 29.67 in1004.7 mb 0.00 in0.0 mm 0.00 in0.0 mm 0.00 in0.0 mm
03:40 PM 76.0°F24.4°C 30.8°F-0.7°C 19% 4.8 mph E7.7 kmh E 11.0 mph17.7 kmh 29.67 in1004.7 mb 0.00 in0.0 mm 0.00 in0.0 mm 0.00 in0.0 mm
03:35 PM 76.4°F24.7°C 31.1°F-0.5°C 19% 3.3 mph SE5.3 kmh SE 15.0 mph24.1 kmh 29.67 in1004.7 mb 0.00 in0.0 mm 0.00 in0.0 mm 0.00 in0.0 mm
03:30 PM 76.8°F24.9°C 32.7°F0.4°C 20% 4.9 mph E7.9 kmh E 15.0 mph24.1 kmh 29.67 in1004.7 mb 0.00 in0.0 mm 0.00 in0.0 mm 0.00 in0.0 mm
03:25 PM 76.7°F24.8°C 32.6°F0.3°C 20% 3.6 mph E5.8 kmh E 12.0 mph19.3 kmh 29.66 in1004.4 mb 0.00 in0.0 mm 0.00 in0.0 mm 0.00 in0.0 mm
03:20 PM 76.4°F24.7°C 32.4°F0.2°C 20% 2.7 mph ESE4.3 kmh ESE 12.0 mph19.3 kmh 29.66 in1004.4 mb 0.00 in0.0 mm 0.00 in0.0 mm 0.00 in0.0 mm
03:15 PM 76.5°F24.7°C 32.4°F0.2°C 20% 4.7 mph E7.6 kmh E 12.0 mph19.3 kmh 29.66 in1004.4 mb 0.00 in0.0 mm 0.00 in0.0 mm 0.00 in0.0 mm
03:10 PM 77.1°F25.1°C 30.3°F-0.9°C 18% 5.6 mph E9.0 kmh E 15.0 mph24.1 kmh 29.66 in1004.4 mb 0.00 in0.0 mm 0.00 in0.0 mm 0.00 in0.0 mm
03:05 PM 77.8°F25.4°C 32.2°F0.1°C 19% 5.4 mph ENE8.7 kmh ENE 15.0 mph24.1 kmh 29.66 in1004.4 mb 0.00 in0.0 mm 0.00 in0.0 mm 0.00 in0.0 mm
03:00 PM 78.4°F25.8°C 30.0°F-1.1°C 17% 6.1 mph E9.8 kmh E 15.0 mph24.1 kmh 29.66 in1004.4 mb 0.00 in0.0 mm 0.00 in0.0 mm 0.00 in0.0 mm
02:55 PM 79.1°F26.2°C 29.0°F-1.7°C 16% 6.4 mph E10.3 kmh E 16.0 mph25.7 kmh 29.66 in1004.4 mb 0.00 in0.0 mm 0.00 in0.0 mm 0.00 in0.0 mm
02:50 PM 79.9°F26.6°C 29.7°F-1.3°C 16% 4.8 mph E7.7 kmh E 16.0 mph25.7 kmh 29.66 in1004.4 mb 0.00 in0.0 mm 0.00 in0.0 mm 0.00 in0.0 mm
02:45 PM 80.1°F26.7°C 31.3°F-0.4°C 17% 4.8 mph E7.7 kmh E 16.0 mph25.7 kmh 29.66 in1004.4 mb 0.00 in0.0 mm 0.00 in0.0 mm 0.00 in0.0 mm
02:40 PM 80.0°F26.7°C 29.8°F-1.2°C 16% 5.8 mph E9.3 kmh E 16.0 mph25.7 kmh 29.66 in1004.4 mb 0.00 in0.0 mm 0.00 in0.0 mm 0.00 in0.0 mm
02:35 PM 79.8°F26.6°C 31.1°F-0.5°C 17% 4.3 mph NE6.9 kmh NE 15.0 mph24.1 kmh 29.66 in1004.4 mb 0.00 in0.0 mm 0.00 in0.0 mm 0.00 in0.0 mm
02:30 PM 79.5°F26.4°C 29.4°F-1.4°C 16% 6.0 mph E9.7 kmh E 16.0 mph25.7 kmh 29.67 in1004.7 mb 0.00 in0.0 mm 0.00 in0.0 mm 0.00 in0.0 mm
02:25 PM 79.3°F26.3°C 29.2°F-1.6°C 16% 4.8 mph E7.7 kmh E 16.0 mph25.7 kmh 29.67 in1004.7 mb 0.00 in0.0 mm 0.00 in0.0 mm 0.00 in0.0 mm
02:20 PM 79.3°F26.3°C 30.7°F-0.7°C 17% 4.0 mph E6.4 kmh E 13.0 mph20.9 kmh 29.67 in1004.7 mb 0.00 in0.0 mm 0.00 in0.0 mm 0.00 in0.0 mm
02:15 PM 79.0°F26.1°C 30.5°F-0.8°C 17% 5.4 mph NE8.7 kmh NE 13.0 mph20.9 kmh 29.67 in1004.7 mb 0.00 in0.0 mm 0.00 in0.0 mm 0.00 in0.0 mm
02:10 PM 78.5°F25.8°C 30.1°F-1.1°C 17% 5.5 mph ENE8.9 kmh ENE 11.0 mph17.7 kmh 29.67 in1004.7 mb 0.00 in0.0 mm 0.00 in0.0 mm 0.00 in0.0 mm
02:05 PM 77.5°F25.3°C 30.6°F-0.8°C 18% 4.6 mph NE7.4 kmh NE 10.0 mph16.1 kmh 29.67 in1004.7 mb 0.00 in0.0 mm 0.00 in0.0 mm 0.00 in0.0 mm
02:00 PM 77.0°F25.0°C 30.2°F-1.0°C 18% 4.1 mph ENE6.6 kmh ENE 13.0 mph20.9 kmh 29.68 in1005.1 mb 0.00 in0.0 mm 0.00 in0.0 mm 0.00 in0.0 mm
01:55 PM 77.7°F25.4°C 30.8°F-0.7°C 18% 2.7 mph E4.3 kmh E 16.0 mph25.7 kmh 29.68 in1005.1 mb 0.00 in0.0 mm 0.00 in0.0 mm 0.00 in0.0 mm
01:50 PM 78.7°F25.9°C 30.2°F-1.0°C 17% 5.4 mph ENE8.7 kmh ENE 16.0 mph25.7 kmh 29.68 in1005.1 mb 0.00 in0.0 mm 0.00 in0.0 mm 0.00 in0.0 mm
01:45 PM 79.3°F26.3°C 30.7°F-0.7°C 17% 4.3 mph E6.9 kmh E 11.0 mph17.7 kmh 29.68 in1005.1 mb 0.00 in0.0 mm 0.00 in0.0 mm 0.00 in0.0 mm
01:40 PM 79.3°F26.3°C 27.6°F-2.4°C 15% 4.0 mph E6.4 kmh E 11.0 mph17.7 kmh 29.68 in1005.1 mb 0.00 in0.0 mm 0.00 in0.0 mm 0.00 in0.0 mm
01:35 PM 79.8°F26.6°C 28.0°F-2.2°C 15% 2.7 mph ENE4.3 kmh ENE 11.0 mph17.7 kmh 29.68 in1005.1 mb 0.00 in0.0 mm 0.00 in0.0 mm 0.00 in0.0 mm
01:30 PM 79.8°F26.6°C 29.6°F-1.3°C 16% 2.7 mph ENE4.3 kmh ENE 11.0 mph17.7 kmh 29.68 in1005.1 mb 0.00 in0.0 mm 0.00 in0.0 mm 0.00 in0.0 mm
01:25 PM 78.9°F26.1°C 33.1°F0.6°C 19% 2.8 mph NE4.5 kmh NE 8.0 mph12.9 kmh 29.69 in1005.4 mb 0.00 in0.0 mm 0.00 in0.0 mm 0.00 in0.0 mm
01:20 PM 78.2°F25.7°C 28.3°F-2.1°C 16% 1.8 mph SE2.9 kmh SE 5.0 mph8.0 kmh 29.69 in1005.4 mb 0.00 in0.0 mm 0.00 in0.0 mm 0.00 in0.0 mm
01:15 PM 78.0°F25.6°C 29.6°F-1.3°C 17% 1.8 mph WSW2.9 kmh WSW 4.0 mph6.4 kmh 29.69 in1005.4 mb 0.00 in0.0 mm 0.00 in0.0 mm 0.00 in0.0 mm
01:10 PM 77.4°F25.2°C 31.9°F-0.1°C 19% 1.3 mph NE2.1 kmh NE 5.0 mph8.0 kmh 29.69 in1005.4 mb 0.00 in0.0 mm 0.00 in0.0 mm 0.00 in0.0 mm
01:05 PM 77.0°F25.0°C 28.8°F-1.8°C 17% 2.2 mph N3.5 kmh N 5.0 mph8.0 kmh 29.69 in1005.4 mb 0.00 in0.0 mm 0.00 in0.0 mm 0.00 in0.0 mm
01:00 PM 76.8°F24.9°C 30.1°F-1.1°C 18% 0.8 mph ESE1.3 kmh ESE 8.0 mph12.9 kmh 29.69 in1005.4 mb 0.00 in0.0 mm 0.00 in0.0 mm 0.00 in0.0 mm
12:55 PM 76.9°F24.9°C 30.2°F-1.0°C 18% 4.6 mph N7.4 kmh N 8.0 mph12.9 kmh 29.70 in1005.8 mb 0.00 in0.0 mm 0.00 in0.0 mm 0.00 in0.0 mm
12:50 PM 77.6°F25.3°C 30.7°F-0.7°C 18% 1.0 mph SE1.6 kmh SE 4.0 mph6.4 kmh 29.70 in1005.8 mb 0.00 in0.0 mm 0.00 in0.0 mm 0.00 in0.0 mm
12:45 PM 77.7°F25.4°C 30.8°F-0.7°C 18% 1.2 mph E1.9 kmh E 6.0 mph9.7 kmh 29.70 in1005.8 mb 0.00 in0.0 mm 0.00 in0.0 mm 0.00 in0.0 mm
12:40 PM 77.7°F25.4°C 30.8°F-0.7°C 18% 2.9 mph ENE4.7 kmh ENE 10.0 mph16.1 kmh 29.70 in1005.8 mb 0.00 in0.0 mm 0.00 in0.0 mm 0.00 in0.0 mm
12:35 PM 77.1°F25.1°C 32.9°F0.5°C 20% 3.9 mph NE6.3 kmh NE 10.0 mph16.1 kmh 29.70 in1005.8 mb 0.00 in0.0 mm 0.00 in0.0 mm 0.00 in0.0 mm
12:30 PM 76.4°F24.7°C 31.1°F-0.5°C 19% 1.9 mph SE3.1 kmh SE 7.0 mph11.3 kmh 29.70 in1005.8 mb 0.00 in0.0 mm 0.00 in0.0 mm 0.00 in0.0 mm
12:25 PM 75.9°F24.4°C 29.3°F-1.5°C 18% 2.2 mph SE3.5 kmh SE 7.0 mph11.3 kmh 29.70 in1005.8 mb 0.00 in0.0 mm 0.00 in0.0 mm 0.00 in0.0 mm
12:20 PM 75.9°F24.4°C 29.3°F-1.5°C 18% 1.6 mph SE2.6 kmh SE 13.0 mph20.9 kmh 29.70 in1005.8 mb 0.00 in0.0 mm 0.00 in0.0 mm 0.00 in0.0 mm
12:15 PM 75.3°F24.1°C 28.9°F-1.7°C 18% 4.3 mph NNE6.9 kmh NNE 13.0 mph20.9 kmh 29.70 in1005.8 mb 0.00 in0.0 mm 0.00 in0.0 mm 0.00 in0.0 mm
12:10 PM 75.1°F23.9°C 31.3°F-0.4°C 20% 3.3 mph NNE5.3 kmh NNE 12.0 mph19.3 kmh 29.70 in1005.8 mb 0.00 in0.0 mm 0.00 in0.0 mm 0.00 in0.0 mm
12:05 PM 74.5°F23.6°C 29.5°F-1.4°C 19% 2.5 mph N4.0 kmh N 10.0 mph16.1 kmh 29.71 in1006.1 mb 0.00 in0.0 mm 0.00 in0.0 mm 0.00 in0.0 mm
12:00 PM 75.1°F23.9°C 31.3°F-0.4°C 20% 6.1 mph N9.8 kmh N 10.0 mph16.1 kmh 29.70 in1005.8 mb 0.00 in0.0 mm 0.00 in0.0 mm 0.00 in0.0 mm
11:55 AM 74.9°F23.8°C 29.9°F-1.2°C 19% 3.8 mph NNE6.1 kmh NNE 10.0 mph16.1 kmh 29.71 in1006.1 mb 0.00 in0.0 mm 0.00 in0.0 mm 0.00 in0.0 mm
11:50 AM 74.1°F23.4°C 32.8°F0.4°C 22% 3.4 mph NNE5.5 kmh NNE 10.0 mph16.1 kmh 29.71 in1006.1 mb 0.00 in0.0 mm 0.00 in0.0 mm 0.00 in0.0 mm
11:45 AM 73.6°F23.1°C 31.3°F-0.4°C 21% 2.5 mph N4.0 kmh N 9.0 mph14.5 kmh 29.71 in1006.1 mb 0.00 in0.0 mm 0.00 in0.0 mm 0.00 in0.0 mm
11:40 AM 73.5°F23.1°C 31.2°F-0.4°C 21% 1.6 mph N2.6 kmh N 11.0 mph17.7 kmh 29.71 in1006.1 mb 0.00 in0.0 mm 0.00 in0.0 mm 0.00 in0.0 mm
11:35 AM 73.1°F22.8°C 28.4°F-2.0°C 19% 5.5 mph N8.9 kmh N 11.0 mph17.7 kmh 29.71 in1006.1 mb 0.00 in0.0 mm 0.00 in0.0 mm 0.00 in0.0 mm
11:30 AM 73.1°F22.8°C 28.4°F-2.0°C 19% 4.7 mph N7.6 kmh N 11.0 mph17.7 kmh 29.71 in1006.1 mb 0.00 in0.0 mm 0.00 in0.0 mm 0.00 in0.0 mm
11:25 AM 73.2°F22.9°C 28.5°F-1.9°C 19% 5.2 mph N8.4 kmh N 10.0 mph16.1 kmh 29.71 in1006.1 mb 0.00 in0.0 mm 0.00 in0.0 mm 0.00 in0.0 mm
11:20 AM 73.1°F22.8°C 25.7°F-3.5°C 17% 4.5 mph N7.2 kmh N 10.0 mph16.1 kmh 29.71 in1006.1 mb 0.00 in0.0 mm 0.00 in0.0 mm 0.00 in0.0 mm
11:15 AM 72.9°F22.7°C 28.2°F-2.1°C 19% 4.4 mph N7.1 kmh N 8.0 mph12.9 kmh 29.71 in1006.1 mb 0.00 in0.0 mm 0.00 in0.0 mm 0.00 in0.0 mm
11:10 AM 73.0°F22.8°C 29.6°F-1.3°C 20% 3.0 mph NNW4.8 kmh NNW 9.0 mph14.5 kmh 29.71 in1006.1 mb 0.00 in0.0 mm 0.00 in0.0 mm 0.00 in0.0 mm
11:05 AM 73.2°F22.9°C 29.7°F-1.3°C 20% 4.4 mph N7.1 kmh N 9.0 mph14.5 kmh 29.71 in1006.1 mb 0.00 in0.0 mm 0.00 in0.0 mm 0.00 in0.0 mm
11:00 AM 73.0°F22.8°C 33.0°F0.6°C 23% 4.0 mph NNE6.4 kmh NNE 8.0 mph12.9 kmh 29.71 in1006.1 mb 0.00 in0.0 mm 0.00 in0.0 mm 0.00 in0.0 mm
10:55 AM 72.4°F22.4°C 31.4°F-0.3°C 22% 2.8 mph NNE4.5 kmh NNE 8.0 mph12.9 kmh 29.71 in1006.1 mb 0.00 in0.0 mm 0.00 in0.0 mm 0.00 in0.0 mm
10:50 AM 72.0°F22.2°C 31.1°F-0.5°C 22% 3.8 mph NNE6.1 kmh NNE 9.0 mph14.5 kmh 29.70 in1005.8 mb 0.00 in0.0 mm 0.00 in0.0 mm 0.00 in0.0 mm
10:45 AM 71.7°F22.1°C 27.2°F-2.7°C 19% 3.6 mph NNE5.8 kmh NNE 9.0 mph14.5 kmh 29.70 in1005.8 mb 0.00 in0.0 mm 0.00 in0.0 mm 0.00 in0.0 mm
10:40 AM 71.0°F21.7°C 30.2°F-1.0°C 22% 3.3 mph NE5.3 kmh NE 9.0 mph14.5 kmh 29.70 in1005.8 mb 0.00 in0.0 mm 0.00 in0.0 mm 0.00 in0.0 mm
10:35 AM 70.4°F21.3°C 31.9°F-0.1°C 24% 2.9 mph N4.7 kmh N 10.0 mph16.1 kmh 29.70 in1005.8 mb 0.00 in0.0 mm 0.00 in0.0 mm 0.00 in0.0 mm
10:30 AM 70.2°F21.2°C 28.4°F-2.0°C 21% 3.8 mph N6.1 kmh N 10.0 mph16.1 kmh 29.70 in1005.8 mb 0.00 in0.0 mm 0.00 in0.0 mm 0.00 in0.0 mm
10:25 AM 70.0°F21.1°C 31.5°F-0.3°C 24% 3.3 mph N5.3 kmh N 10.0 mph16.1 kmh 29.70 in1005.8 mb 0.00 in0.0 mm 0.00 in0.0 mm 0.00 in0.0 mm
10:20 AM 69.8°F21.0°C 29.2°F-1.6°C 22% 4.1 mph NNW6.6 kmh NNW 10.0 mph16.1 kmh 29.70 in1005.8 mb 0.00 in0.0 mm 0.00 in0.0 mm 0.00 in0.0 mm
10:15 AM 69.5°F20.8°C 31.1°F-0.5°C 24% 4.1 mph N6.6 kmh N 10.0 mph16.1 kmh 29.70 in1005.8 mb 0.00 in0.0 mm 0.00 in0.0 mm 0.00 in0.0 mm
10:10 AM 69.0°F20.6°C 29.7°F-1.3°C 23% 4.5 mph N7.2 kmh N 10.0 mph16.1 kmh 29.70 in1005.8 mb 0.00 in0.0 mm 0.00 in0.0 mm 0.00 in0.0 mm
10:05 AM 68.3°F20.2°C 31.1°F-0.5°C 25% 3.3 mph N5.3 kmh N 9.0 mph14.5 kmh 29.70 in1005.8 mb 0.00 in0.0 mm 0.00 in0.0 mm 0.00 in0.0 mm
10:00 AM 67.9°F19.9°C 33.6°F0.9°C 28% 3.2 mph NW5.1 kmh NW 7.0 mph11.3 kmh 29.70 in1005.8 mb 0.00 in0.0 mm 0.00 in0.0 mm 0.00 in0.0 mm
09:55 AM 67.4°F19.7°C 32.3°F0.2°C 27% 2.7 mph W4.3 kmh W 10.0 mph16.1 kmh 29.70 in1005.8 mb 0.00 in0.0 mm 0.00 in0.0 mm 0.00 in0.0 mm
09:50 AM 67.1°F19.5°C 31.1°F-0.5°C 26% 4.8 mph NW7.7 kmh NW 10.0 mph16.1 kmh 29.70 in1005.8 mb 0.00 in0.0 mm 0.00 in0.0 mm 0.00 in0.0 mm
09:45 AM 66.7°F19.3°C 30.7°F-0.7°C 26% 4.7 mph NW7.6 kmh NW 9.0 mph14.5 kmh 29.70 in1005.8 mb 0.00 in0.0 mm 0.00 in0.0 mm 0.00 in0.0 mm
09:40 AM 66.4°F19.1°C 33.2°F0.7°C 29% 2.8 mph WNW4.5 kmh WNW 9.0 mph14.5 kmh 29.70 in1005.8 mb 0.00 in0.0 mm 0.00 in0.0 mm 0.00 in0.0 mm
09:35 AM 66.0°F18.9°C 32.8°F0.4°C 29% 3.3 mph NW5.3 kmh NW 10.0 mph16.1 kmh 29.70 in1005.8 mb 0.00 in0.0 mm 0.00 in0.0 mm 0.00 in0.0 mm
09:30 AM 65.7°F18.7°C 30.8°F-0.7°C 27% 5.2 mph NW8.4 kmh NW 10.0 mph16.1 kmh 29.70 in1005.8 mb 0.00 in0.0 mm 0.00 in0.0 mm 0.00 in0.0 mm
09:25 AM 65.4°F18.6°C 32.3°F0.2°C 29% 3.5 mph NW5.6 kmh NW 11.0 mph17.7 kmh 29.70 in1005.8 mb 0.00 in0.0 mm 0.00 in0.0 mm 0.00 in0.0 mm
09:20 AM 65.2°F18.4°C 30.4°F-0.9°C 27% 4.8 mph NW7.7 kmh NW 13.0 mph20.9 kmh 29.70 in1005.8 mb 0.00 in0.0 mm 0.00 in0.0 mm 0.00 in0.0 mm
09:15 AM 65.0°F18.3°C 31.1°F-0.5°C 28% 5.5 mph NW8.9 kmh NW 13.0 mph20.9 kmh 29.70 in1005.8 mb 0.00 in0.0 mm 0.00 in0.0 mm 0.00 in0.0 mm
09:10 AM 64.9°F18.3°C 31.9°F-0.1°C 29% 4.4 mph NW7.1 kmh NW 12.0 mph19.3 kmh 29.69 in1005.4 mb 0.00 in0.0 mm 0.00 in0.0 mm 0.00 in0.0 mm
09:05 AM 64.9°F18.3°C 33.5°F0.8°C 31% 4.3 mph WNW6.9 kmh WNW 14.0 mph22.5 kmh 29.69 in1005.4 mb 0.00 in0.0 mm 0.00 in0.0 mm 0.00 in0.0 mm
09:00 AM 65.0°F18.3°C 32.8°F0.4°C 30% 5.7 mph WNW9.2 kmh WNW 14.0 mph22.5 kmh 29.70 in1005.8 mb 0.00 in0.0 mm 0.00 in0.0 mm 0.00 in0.0 mm
08:55 AM 64.9°F18.3°C 31.9°F-0.1°C 29% 5.6 mph WNW9.0 kmh WNW 15.0 mph24.1 kmh 29.69 in1005.4 mb 0.00 in0.0 mm 0.00 in0.0 mm 0.00 in0.0 mm
08:50 AM 64.9°F18.3°C 31.9°F-0.1°C 29% 7.5 mph NW12.1 kmh NW 15.0 mph24.1 kmh 29.70 in1005.8 mb 0.00 in0.0 mm 0.00 in0.0 mm 0.00 in0.0 mm
08:45 AM 64.9°F18.3°C 31.9°F-0.1°C 29% 5.6 mph WNW9.0 kmh WNW 13.0 mph20.9 kmh 29.70 in1005.8 mb 0.00 in0.0 mm 0.00 in0.0 mm 0.00 in0.0 mm
08:40 AM 64.9°F18.3°C 31.9°F-0.1°C 29% 6.5 mph WNW10.5 kmh WNW 12.0 mph19.3 kmh 29.70 in1005.8 mb 0.00 in0.0 mm 0.00 in0.0 mm 0.00 in0.0 mm
08:35 AM 64.9°F18.3°C 31.9°F-0.1°C 29% 5.9 mph WNW9.5 kmh WNW 12.0 mph19.3 kmh 29.69 in1005.4 mb 0.00 in0.0 mm 0.00 in0.0 mm 0.00 in0.0 mm
08:30 AM 64.8°F18.2°C 31.8°F-0.1°C 29% 7.3 mph NW11.7 kmh NW 12.0 mph19.3 kmh 29.69 in1005.4 mb 0.00 in0.0 mm 0.00 in0.0 mm 0.00 in0.0 mm
08:25 AM 64.6°F18.1°C 32.5°F0.3°C 30% 6.7 mph NW10.8 kmh NW 12.0 mph19.3 kmh 29.70 in1005.8 mb 0.00 in0.0 mm 0.00 in0.0 mm 0.00 in0.0 mm
08:20 AM 64.7°F18.2°C 32.6°F0.3°C 30% 7.2 mph NW11.6 kmh NW 12.0 mph19.3 kmh 29.70 in1005.8 mb 0.00 in0.0 mm 0.00 in0.0 mm 0.00 in0.0 mm
08:15 AM 64.8°F18.2°C 32.6°F0.3°C 30% 6.2 mph NW10.0 kmh NW 11.0 mph17.7 kmh 29.70 in1005.8 mb 0.00 in0.0 mm 0.00 in0.0 mm 0.00 in0.0 mm
08:10 AM 64.9°F18.3°C 32.7°F0.4°C 30% 5.0 mph NW8.0 kmh NW 10.0 mph16.1 kmh 29.70 in1005.8 mb 0.00 in0.0 mm 0.00 in0.0 mm 0.00 in0.0 mm
08:05 AM 65.1°F18.4°C 32.1°F0.1°C 29% 5.6 mph WNW9.0 kmh WNW 10.0 mph16.1 kmh 29.70 in1005.8 mb 0.00 in0.0 mm 0.00 in0.0 mm 0.00 in0.0 mm
08:00 AM 65.2°F18.4°C 32.1°F0.1°C 29% 4.9 mph WNW7.9 kmh WNW 10.0 mph16.1 kmh 29.70 in1005.8 mb 0.00 in0.0 mm 0.00 in0.0 mm 0.00 in0.0 mm
07:55 AM 65.3°F18.5°C 32.2°F0.1°C 29% 5.5 mph W8.9 kmh W 16.0 mph25.7 kmh 29.70 in1005.8 mb 0.00 in0.0 mm 0.00 in0.0 mm 0.00 in0.0 mm
07:50 AM 65.3°F18.5°C 32.2°F0.1°C 29% 7.2 mph NW11.6 kmh NW 16.0 mph25.7 kmh 29.70 in1005.8 mb 0.00 in0.0 mm 0.00 in0.0 mm 0.00 in0.0 mm
07:45 AM 65.3°F18.5°C 32.2°F0.1°C 29% 6.0 mph WNW9.7 kmh WNW 13.0 mph20.9 kmh 29.69 in1005.4 mb 0.00 in0.0 mm 0.00 in0.0 mm 0.00 in0.0 mm
07:40 AM 65.4°F18.6°C 32.3°F0.2°C 29% 7.1 mph NW11.4 kmh NW 13.0 mph20.9 kmh 29.69 in1005.4 mb 0.00 in0.0 mm 0.00 in0.0 mm 0.00 in0.0 mm
07:35 AM 65.4°F18.6°C 32.3°F0.2°C 29% 6.9 mph NW11.1 kmh NW 12.0 mph19.3 kmh 29.69 in1005.4 mb 0.00 in0.0 mm 0.00 in0.0 mm 0.00 in0.0 mm
07:30 AM 65.1°F18.4°C 32.1°F0.1°C 29% 5.3 mph NW8.5 kmh NW 12.0 mph19.3 kmh 29.69 in1005.4 mb 0.00 in0.0 mm 0.00 in0.0 mm 0.00 in0.0 mm
07:25 AM 64.5°F18.1°C 31.5°F-0.3°C 29% 5.6 mph NNW9.0 kmh NNW 14.0 mph22.5 kmh 29.69 in1005.4 mb 0.00 in0.0 mm 0.00 in0.0 mm 0.00 in0.0 mm
07:20 AM 64.2°F17.9°C 32.1°F0.1°C 30% 6.6 mph NNW10.6 kmh NNW 14.0 mph22.5 kmh 29.69 in1005.4 mb 0.00 in0.0 mm 0.00 in0.0 mm 0.00 in0.0 mm
07:15 AM 63.5°F17.5°C 31.5°F-0.3°C 30% 6.2 mph N10.0 kmh N 13.0 mph20.9 kmh 29.68 in1005.1 mb 0.00 in0.0 mm 0.00 in0.0 mm 0.00 in0.0 mm
07:10 AM 63.5°F17.5°C 31.5°F-0.3°C 30% 5.7 mph N9.2 kmh N 11.0 mph17.7 kmh 29.68 in1005.1 mb 0.00 in0.0 mm 0.00 in0.0 mm 0.00 in0.0 mm
07:05 AM 63.5°F17.5°C 31.5°F-0.3°C 30% 6.3 mph N10.1 kmh N 14.0 mph22.5 kmh 29.67 in1004.7 mb 0.00 in0.0 mm 0.00 in0.0 mm 0.00 in0.0 mm
07:00 AM 63.1°F17.3°C 31.2°F-0.4°C 30% 6.6 mph N10.6 kmh N 14.0 mph22.5 kmh 29.67 in1004.7 mb 0.00 in0.0 mm 0.00 in0.0 mm 0.00 in0.0 mm
06:55 AM 62.6°F17.0°C 30.7°F-0.7°C 30% 5.9 mph NNE9.5 kmh NNE 10.0 mph16.1 kmh 29.67 in1004.7 mb 0.00 in0.0 mm 0.00 in0.0 mm 0.00 in0.0 mm
06:50 AM 62.4°F16.9°C 30.6°F-0.8°C 30% 5.6 mph NNE9.0 kmh NNE 10.0 mph16.1 kmh 29.67 in1004.7 mb 0.00 in0.0 mm 0.00 in0.0 mm 0.00 in0.0 mm
06:45 AM 62.7°F17.1°C 31.6°F-0.2°C 31% 6.2 mph NE10.0 kmh NE 9.0 mph14.5 kmh 29.66 in1004.4 mb 0.00 in0.0 mm 0.00 in0.0 mm 0.00 in0.0 mm
06:40 AM 63.2°F17.3°C 30.4°F-0.9°C 29% 3.7 mph NE6.0 kmh NE 8.0 mph12.9 kmh 29.66 in1004.4 mb 0.00 in0.0 mm 0.00 in0.0 mm 0.00 in0.0 mm
06:35 AM 63.7°F17.6°C 30.8°F-0.7°C 29% 3.9 mph NE6.3 kmh NE 7.0 mph11.3 kmh 29.66 in1004.4 mb 0.00 in0.0 mm 0.00 in0.0 mm 0.00 in0.0 mm
06:30 AM 64.1°F17.8°C 30.3°F-0.9°C 28% 3.0 mph NNE4.8 kmh NNE 10.0 mph16.1 kmh 29.65 in1004.1 mb 0.00 in0.0 mm 0.00 in0.0 mm 0.00 in0.0 mm
06:25 AM 63.8°F17.7°C 30.1°F-1.1°C 28% 3.6 mph N5.8 kmh N 10.0 mph16.1 kmh 29.65 in1004.1 mb 0.00 in0.0 mm 0.00 in0.0 mm 0.00 in0.0 mm
06:20 AM 63.6°F17.6°C 29.0°F-1.7°C 27% 0.8 mph NE1.3 kmh NE 6.0 mph9.7 kmh 29.65 in1004.1 mb 0.00 in0.0 mm 0.00 in0.0 mm 0.00 in0.0 mm
06:15 AM 63.6°F17.6°C 29.9°F-1.2°C 28% 2.6 mph NE4.2 kmh NE 11.0 mph17.7 kmh 29.65 in1004.1 mb 0.00 in0.0 mm 0.00 in0.0 mm 0.00 in0.0 mm
06:10 AM 63.5°F17.5°C 29.8°F-1.2°C 28% 4.1 mph N6.6 kmh N 12.0 mph19.3 kmh 29.64 in1003.7 mb 0.00 in0.0 mm 0.00 in0.0 mm 0.00 in0.0 mm
06:05 AM 63.5°F17.5°C 30.7°F-0.7°C 29% 4.0 mph NE6.4 kmh NE 12.0 mph19.3 kmh 29.65 in1004.1 mb 0.00 in0.0 mm 0.00 in0.0 mm 0.00 in0.0 mm
06:00 AM 64.5°F18.1°C 30.7°F-0.7°C 28% 4.5 mph NNE7.2 kmh NNE 10.0 mph16.1 kmh 29.64 in1003.7 mb 0.00 in0.0 mm 0.00 in0.0 mm 0.00 in0.0 mm
05:55 AM 65.0°F18.3°C 31.1°F-0.5°C 28% 1.9 mph NE3.1 kmh NE 5.0 mph8.0 kmh 29.64 in1003.7 mb 0.00 in0.0 mm 0.00 in0.0 mm 0.00 in0.0 mm
05:50 AM 65.0°F18.3°C 30.2°F-1.0°C 27% 1.6 mph S2.6 kmh S 7.0 mph11.3 kmh 29.64 in1003.7 mb 0.00 in0.0 mm 0.00 in0.0 mm 0.00 in0.0 mm
05:45 AM 64.8°F18.2°C 30.9°F-0.6°C 28% 3.7 mph SSE6.0 kmh SSE 7.0 mph11.3 kmh 29.64 in1003.7 mb 0.00 in0.0 mm 0.00 in0.0 mm 0.00 in0.0 mm
05:40 AM 64.7°F18.2°C 30.8°F-0.7°C 28% 2.4 mph S3.9 kmh S 4.0 mph6.4 kmh 29.63 in1003.4 mb 0.00 in0.0 mm 0.00 in0.0 mm 0.00 in0.0 mm
05:35 AM 64.6°F18.1°C 30.8°F-0.7°C 28% 2.1 mph E3.4 kmh E 3.0 mph4.8 kmh 29.63 in1003.4 mb 0.00 in0.0 mm 0.00 in0.0 mm 0.00 in0.0 mm
05:30 AM 65.0°F18.3°C 30.2°F-1.0°C 27% 1.6 mph E2.6 kmh E 4.0 mph6.4 kmh 29.63 in1003.4 mb 0.00 in0.0 mm 0.00 in0.0 mm 0.00 in0.0 mm
05:25 AM 65.5°F18.6°C 30.6°F-0.8°C 27% 2.4 mph SSE3.9 kmh SSE 7.0 mph11.3 kmh 29.62 in1003.0 mb 0.00 in0.0 mm 0.00 in0.0 mm 0.00 in0.0 mm
05:20 AM 66.1°F18.9°C 31.1°F-0.5°C 27% 3.0 mph NW4.8 kmh NW 7.0 mph11.3 kmh 29.62 in1003.0 mb 0.00 in0.0 mm 0.00 in0.0 mm 0.00 in0.0 mm
05:15 AM 66.2°F19.0°C 30.3°F-0.9°C 26% 2.0 mph NE3.2 kmh NE 4.0 mph6.4 kmh 29.61 in1002.7 mb 0.00 in0.0 mm 0.00 in0.0 mm 0.00 in0.0 mm
05:10 AM 66.2°F19.0°C 30.3°F-0.9°C 26% 1.9 mph N3.1 kmh N 4.0 mph6.4 kmh 29.61 in1002.7 mb 0.00 in0.0 mm 0.00 in0.0 mm 0.00 in0.0 mm
05:05 AM 66.0°F18.9°C 30.1°F-1.1°C 26% 1.6 mph NW2.6 kmh NW 7.0 mph11.3 kmh 29.61 in1002.7 mb 0.00 in0.0 mm 0.00 in0.0 mm 0.00 in0.0 mm
05:00 AM 65.7°F18.7°C 29.9°F-1.2°C 26% 1.4 mph NNW2.3 kmh NNW 7.0 mph11.3 kmh 29.61 in1002.7 mb 0.00 in0.0 mm 0.00 in0.0 mm 0.00 in0.0 mm
04:55 AM 65.3°F18.5°C 30.5°F-0.8°C 27% 2.0 mph NW3.2 kmh NW 7.0 mph11.3 kmh 29.62 in1003.0 mb 0.00 in0.0 mm 0.00 in0.0 mm 0.00 in0.0 mm
04:50 AM 64.5°F18.1°C 29.8°F-1.2°C 27% 2.0 mph N3.2 kmh N 7.0 mph11.3 kmh 29.62 in1003.0 mb 0.00 in0.0 mm 0.00 in0.0 mm 0.00 in0.0 mm
04:45 AM 64.1°F17.8°C 29.4°F-1.4°C 27% 0.8 mph SSE1.3 kmh SSE 6.0 mph9.7 kmh 29.62 in1003.0 mb 0.00 in0.0 mm 0.00 in0.0 mm 0.00 in0.0 mm
04:40 AM 64.0°F17.8°C 29.4°F-1.4°C 27% 2.4 mph S3.9 kmh S 6.0 mph9.7 kmh 29.62 in1003.0 mb 0.00 in0.0 mm 0.00 in0.0 mm 0.00 in0.0 mm
04:35 AM 63.9°F17.7°C 30.2°F-1.0°C 28% 3.9 mph S6.3 kmh S 6.0 mph9.7 kmh 29.62 in1003.0 mb 0.00 in0.0 mm 0.00 in0.0 mm 0.00 in0.0 mm
04:30 AM 63.7°F17.6°C 30.0°F-1.1°C 28% 3.7 mph S6.0 kmh S 6.0 mph9.7 kmh 29.61 in1002.7 mb 0.00 in0.0 mm 0.00 in0.0 mm 0.00 in0.0 mm
04:25 AM 63.6°F17.6°C 29.9°F-1.2°C 28% 3.4 mph S5.5 kmh S 6.0 mph9.7 kmh 29.62 in1003.0 mb 0.00 in0.0 mm 0.00 in0.0 mm 0.00 in0.0 mm
04:20 AM 63.5°F17.5°C 29.8°F-1.2°C 28% 3.1 mph S5.0 kmh S 6.0 mph9.7 kmh 29.62 in1003.0 mb 0.00 in0.0 mm 0.00 in0.0 mm 0.00 in0.0 mm
04:15 AM 63.4°F17.4°C 29.7°F-1.3°C 28% 2.5 mph SSW4.0 kmh SSW 4.0 mph6.4 kmh 29.62 in1003.0 mb 0.00 in0.0 mm 0.00 in0.0 mm 0.00 in0.0 mm
04:10 AM 63.3°F17.4°C 30.5°F-0.8°C 29% 3.1 mph SSW5.0 kmh SSW 4.0 mph6.4 kmh 29.62 in1003.0 mb 0.00 in0.0 mm 0.00 in0.0 mm 0.00 in0.0 mm
04:05 AM 63.1°F17.3°C 30.3°F-0.9°C 29% 2.9 mph SSW4.7 kmh SSW 4.0 mph6.4 kmh 29.62 in1003.0 mb 0.00 in0.0 mm 0.00 in0.0 mm 0.00 in0.0 mm
04:00 AM 63.0°F17.2°C 30.2°F-1.0°C 29% 2.9 mph SW4.7 kmh SW 4.0 mph6.4 kmh 29.61 in1002.7 mb 0.00 in0.0 mm 0.00 in0.0 mm 0.00 in0.0 mm
03:55 AM 63.0°F17.2°C 30.2°F-1.0°C 29% 2.7 mph SW4.3 kmh SW 4.0 mph6.4 kmh 29.61 in1002.7 mb 0.00 in0.0 mm 0.00 in0.0 mm 0.00 in0.0 mm
03:50 AM 63.1°F17.3°C 30.3°F-0.9°C 29% 2.7 mph SW4.3 kmh SW 6.0 mph9.7 kmh 29.61 in1002.7 mb 0.00 in0.0 mm 0.00 in0.0 mm 0.00 in0.0 mm
03:45 AM 63.2°F17.3°C 29.6°F-1.3°C 28% 3.8 mph SW6.1 kmh SW 8.0 mph12.9 kmh 29.61 in1002.7 mb 0.00 in0.0 mm 0.00 in0.0 mm 0.00 in0.0 mm
03:40 AM 63.2°F17.3°C 30.4°F-0.9°C 29% 4.4 mph SSW7.1 kmh SSW 8.0 mph12.9 kmh 29.61 in1002.7 mb 0.00 in0.0 mm 0.00 in0.0 mm 0.00 in0.0 mm
03:35 AM 63.3°F17.4°C 29.6°F-1.3°C 28% 4.6 mph SSW7.4 kmh SSW 8.0 mph12.9 kmh 29.61 in1002.7 mb 0.00 in0.0 mm 0.00 in0.0 mm 0.00 in0.0 mm
03:30 AM 63.2°F17.3°C 29.6°F-1.3°C 28% 5.4 mph SSW8.7 kmh SSW 8.0 mph12.9 kmh 29.61 in1002.7 mb 0.00 in0.0 mm 0.00 in0.0 mm 0.00 in0.0 mm
03:25 AM 63.2°F17.3°C 30.4°F-0.9°C 29% 5.5 mph SSW8.9 kmh SSW 8.0 mph12.9 kmh 29.61 in1002.7 mb 0.00 in0.0 mm 0.00 in0.0 mm 0.00 in0.0 mm
03:20 AM 63.2°F17.3°C 30.4°F-0.9°C 29% 4.8 mph SSW7.7 kmh SSW 8.0 mph12.9 kmh 29.61 in1002.7 mb 0.00 in0.0 mm 0.00 in0.0 mm 0.00 in0.0 mm
03:15 AM 63.2°F17.3°C 30.4°F-0.9°C 29% 3.9 mph SSW6.3 kmh SSW 7.0 mph11.3 kmh 29.61 in1002.7 mb 0.00 in0.0 mm 0.00 in0.0 mm 0.00 in0.0 mm
03:10 AM 63.2°F17.3°C 30.4°F-0.9°C 29% 4.2 mph SSW6.8 kmh SSW 9.0 mph14.5 kmh 29.61 in1002.7 mb 0.00 in0.0 mm 0.00 in0.0 mm 0.00 in0.0 mm
03:05 AM 63.0°F17.2°C 30.2°F-1.0°C 29% 3.8 mph SW6.1 kmh SW 9.0 mph14.5 kmh 29.61 in1002.7 mb 0.00 in0.0 mm 0.00 in0.0 mm 0.00 in0.0 mm
03:00 AM 62.5°F16.9°C 30.6°F-0.8°C 30% 4.0 mph SSW6.4 kmh SSW 7.0 mph11.3 kmh 29.61 in1002.7 mb 0.00 in0.0 mm 0.00 in0.0 mm 0.00 in0.0 mm
02:55 AM 62.5°F16.9°C 30.6°F-0.8°C 30% 3.2 mph SSW5.1 kmh SSW 5.0 mph8.0 kmh 29.61 in1002.7 mb 0.00 in0.0 mm 0.00 in0.0 mm 0.00 in0.0 mm
02:50 AM 62.4°F16.9°C 30.6°F-0.8°C 30% 3.6 mph SSW5.8 kmh SSW 7.0 mph11.3 kmh 29.61 in1002.7 mb 0.00 in0.0 mm 0.00 in0.0 mm 0.00 in0.0 mm
02:45 AM 62.0°F16.7°C 30.2°F-1.0°C 30% 4.2 mph SSW6.8 kmh SSW 7.0 mph11.3 kmh 29.61 in1002.7 mb 0.00 in0.0 mm 0.00 in0.0 mm 0.00 in0.0 mm
02:40 AM 61.6°F16.4°C 29.9°F-1.2°C 30% 4.2 mph SSW6.8 kmh SSW 7.0 mph11.3 kmh 29.61 in1002.7 mb 0.00 in0.0 mm 0.00 in0.0 mm 0.00 in0.0 mm
02:35 AM 61.4°F16.3°C 30.5°F-0.8°C 31% 3.7 mph SSW6.0 kmh SSW 7.0 mph11.3 kmh 29.61 in1002.7 mb 0.00 in0.0 mm 0.00 in0.0 mm 0.00 in0.0 mm
02:30 AM 61.1°F16.2°C 31.0°F-0.6°C 32% 3.5 mph SSW5.6 kmh SSW 7.0 mph11.3 kmh 29.61 in1002.7 mb 0.00 in0.0 mm 0.00 in0.0 mm 0.00 in0.0 mm
02:25 AM 60.8°F16.0°C 32.3°F0.2°C 34% 3.1 mph SSW5.0 kmh SSW 5.0 mph8.0 kmh 29.61 in1002.7 mb 0.00 in0.0 mm 0.00 in0.0 mm 0.00 in0.0 mm
02:20 AM 60.7°F15.9°C 33.6°F0.9°C 36% 2.8 mph SSW4.5 kmh SSW 4.0 mph6.4 kmh 29.61 in1002.7 mb 0.00 in0.0 mm 0.00 in0.0 mm 0.00 in0.0 mm
02:15 AM 60.6°F15.9°C 34.2°F1.2°C 37% 3.1 mph S5.0 kmh S 4.0 mph6.4 kmh 29.61 in1002.7 mb 0.00 in0.0 mm 0.00 in0.0 mm 0.00 in0.0 mm
02:10 AM 60.7°F15.9°C 36.2°F2.3°C 40% 2.7 mph S4.3 kmh S 4.0 mph6.4 kmh 29.61 in1002.7 mb 0.00 in0.0 mm 0.00 in0.0 mm 0.00 in0.0 mm
02:05 AM 60.7°F15.9°C 35.6°F2.0°C 39% 2.4 mph SW3.9 kmh SW 5.0 mph8.0 kmh 29.62 in1003.0 mb 0.00 in0.0 mm 0.00 in0.0 mm 0.00 in0.0 mm
02:00 AM 60.5°F15.8°C 35.4°F1.9°C 39% 3.1 mph S5.0 kmh S 5.0 mph8.0 kmh 29.61 in1002.7 mb 0.00 in0.0 mm 0.00 in0.0 mm 0.00 in0.0 mm
01:55 AM 60.3°F15.7°C 36.5°F2.5°C 41% 3.9 mph SSW6.3 kmh SSW 6.0 mph9.7 kmh 29.61 in1002.7 mb 0.00 in0.0 mm 0.00 in0.0 mm 0.00 in0.0 mm
01:50 AM 60.2°F15.7°C 37.6°F3.1°C 43% 3.7 mph S6.0 kmh S 6.0 mph9.7 kmh 29.61 in1002.7 mb 0.00 in0.0 mm 0.00 in0.0 mm 0.00 in0.0 mm
01:45 AM 59.9°F15.5°C 38.5°F3.6°C 45% 3.1 mph S5.0 kmh S 6.0 mph9.7 kmh 29.62 in1003.0 mb 0.00 in0.0 mm 0.00 in0.0 mm 0.00 in0.0 mm
01:40 AM 59.6°F15.3°C 40.9°F4.9°C 50% 3.3 mph S5.3 kmh S 6.0 mph9.7 kmh 29.62 in1003.0 mb 0.00 in0.0 mm 0.00 in0.0 mm 0.00 in0.0 mm
01:35 AM 59.6°F15.3°C 40.9°F4.9°C 50% 3.1 mph S5.0 kmh S 4.0 mph6.4 kmh 29.62 in1003.0 mb 0.00 in0.0 mm 0.00 in0.0 mm 0.00 in0.0 mm
01:30 AM 59.6°F15.3°C 40.9°F4.9°C 50% 2.7 mph S4.3 kmh S 4.0 mph6.4 kmh 29.63 in1003.4 mb 0.00 in0.0 mm 0.00 in0.0 mm 0.00 in0.0 mm
01:25 AM 59.4°F15.2°C 41.3°F5.2°C 51% 2.6 mph SE4.2 kmh SE 5.0 mph8.0 kmh 29.63 in1003.4 mb 0.00 in0.0 mm 0.00 in0.0 mm 0.00 in0.0 mm
01:20 AM 59.0°F15.0°C 41.9°F5.5°C 53% 1.4 mph ENE2.3 kmh ENE 5.0 mph8.0 kmh 29.63 in1003.4 mb 0.00 in0.0 mm 0.00 in0.0 mm 0.00 in0.0 mm
01:15 AM 58.9°F14.9°C 42.8°F6.0°C 55% Calm Calm 1.0 mph1.6 kmh 29.64 in1003.7 mb 0.00 in0.0 mm 0.00 in0.0 mm 0.00 in0.0 mm
01:10 AM 58.9°F14.9°C 42.3°F5.7°C 54% Calm Calm 4.0 mph6.4 kmh 29.64 in1003.7 mb 0.00 in0.0 mm 0.00 in0.0 mm 0.00 in0.0 mm
01:05 AM 58.9°F14.9°C 42.8°F6.0°C 55% 1.7 mph NE2.7 kmh NE 4.0 mph6.4 kmh 29.64 in1003.7 mb 0.00 in0.0 mm 0.00 in0.0 mm 0.00 in0.0 mm
01:00 AM 58.9°F14.9°C 42.8°F6.0°C 55% 1.4 mph NE2.3 kmh NE 8.0 mph12.9 kmh 29.65 in1004.1 mb 0.00 in0.0 mm 0.00 in0.0 mm 0.00 in0.0 mm
12:55 AM 58.9°F14.9°C 42.8°F6.0°C 55% 3.0 mph NE4.8 kmh NE 9.0 mph14.5 kmh 29.65 in1004.1 mb 0.00 in0.0 mm 0.00 in0.0 mm 0.00 in0.0 mm
12:50 AM 58.9°F14.9°C 42.8°F6.0°C 55% 4.5 mph NE7.2 kmh NE 9.0 mph14.5 kmh 29.65 in1004.1 mb 0.00 in0.0 mm 0.00 in0.0 mm 0.00 in0.0 mm
12:45 AM 59.0°F15.0°C 42.9°F6.1°C 55% 4.6 mph NE7.4 kmh NE 10.0 mph16.1 kmh 29.65 in1004.1 mb 0.00 in0.0 mm 0.00 in0.0 mm 0.00 in0.0 mm
12:40 AM 59.1°F15.1°C 42.9°F6.1°C 55% 4.9 mph NE7.9 kmh NE 10.0 mph16.1 kmh 29.65 in1004.1 mb 0.00 in0.0 mm 0.00 in0.0 mm 0.00 in0.0 mm
12:35 AM 59.2°F15.1°C 42.6°F5.9°C 54% 4.1 mph NE6.6 kmh NE 10.0 mph16.1 kmh 29.66 in1004.4 mb 0.00 in0.0 mm 0.00 in0.0 mm 0.00 in0.0 mm
12:30 AM 59.3°F15.2°C 42.7°F5.9°C 54% 5.0 mph NE8.0 kmh NE 10.0 mph16.1 kmh 29.65 in1004.1 mb 0.00 in0.0 mm 0.00 in0.0 mm 0.00 in0.0 mm
12:25 AM 59.5°F15.3°C 42.8°F6.0°C 54% 4.6 mph NE7.4 kmh NE 11.0 mph17.7 kmh 29.65 in1004.1 mb 0.00 in0.0 mm 0.00 in0.0 mm 0.00 in0.0 mm
12:20 AM 59.6°F15.3°C 42.9°F6.1°C 54% 5.5 mph NE8.9 kmh NE 11.0 mph17.7 kmh 29.66 in1004.4 mb 0.00 in0.0 mm 0.00 in0.0 mm 0.00 in0.0 mm
12:15 AM 59.7°F15.4°C 42.5°F5.8°C 53% 5.7 mph NE9.2 kmh NE 12.0 mph19.3 kmh 29.66 in1004.4 mb 0.00 in0.0 mm 0.00 in0.0 mm 0.00 in0.0 mm
12:10 AM 59.8°F15.4°C 42.6°F5.9°C 53% 6.5 mph NNE10.5 kmh NNE 14.0 mph22.5 kmh 29.66 in1004.4 mb 0.00 in0.0 mm 0.00 in0.0 mm 0.00 in0.0 mm
12:05 AM 59.9°F15.5°C 42.2°F5.7°C 52% 6.8 mph NE10.9 kmh NE 14.0 mph22.5 kmh 29.67 in1004.7 mb 0.00 in0.0 mm 0.00 in0.0 mm 0.00 in0.0 mm
12:00 AM 60.0°F15.6°C 42.3°F5.7°C 52% 6.7 mph NE10.8 kmh NE 15.0 mph24.1 kmh 29.67 in1004.7 mb 0.00 in0.0 mm 0.00 in0.0 mm 0.00 in0.0 mm